Time;durP1;ratioP1;P1;durP2;ratioP2;P2;SDS_P1;SDS_P2;PMS_P1;PMS_P2;Temp;Humidity;BMP_temperature;BMP_pressure;BME280_temperature;BME280_humidity;BME280_pressure;Samples;Min_cycle;Max_cycle;Signal;HPM_P1;HPM_P2
2022/07/15 00:01:52;;;;;;;;;9.50;9.00;30.00;32.40;;;;;;5090495;28;8768;-77
2022/07/15 00:04:18;;;;;;;;;10.00;10.00;29.90;31.80;;;;;;5072483;28;8784;-77
2022/07/15 00:06:44;;;;;;;;;11.50;10.75;29.90;32.10;;;;;;5093330;28;8765;-77
2022/07/15 00:09:10;;;;;;;;;11.00;11.00;29.90;32.70;;;;;;5093090;28;8780;-78
2022/07/15 00:11:36;;;;;;;;;13.50;12.75;29.90;32.30;;;;;;5091259;28;8771;-77
2022/07/15 00:14:02;;;;;;;;;10.75;10.75;29.90;32.40;;;;;;5090227;28;9398;-77
2022/07/15 00:16:27;;;;;;;;;9.00;8.00;29.80;32.60;;;;;;5093435;28;8779;-77
2022/07/15 00:18:53;;;;;;;;;13.00;13.00;29.80;32.40;;;;;;5093084;28;8850;-77
2022/07/15 00:21:19;;;;;;;;;10.50;10.50;29.80;32.60;;;;;;5093021;28;8780;-77
2022/07/15 00:23:45;;;;;;;;;4.00;2.50;29.70;32.60;;;;;;5093320;28;8752;-77
2022/07/15 00:26:10;;;;;;;;;11.00;11.00;29.70;32.60;;;;;;5079819;28;8802;-77
2022/07/15 00:28:36;;;;;;;;;13.00;13.00;29.70;32.80;;;;;;5074107;28;8833;-78
2022/07/15 00:31:02;;;;;;;;;12.25;12.25;29.60;32.70;;;;;;5073690;28;8790;-77
2022/07/15 00:33:28;;;;;;;;;12.00;11.00;29.40;33.00;;;;;;5074120;28;8758;-78
2022/07/15 00:35:53;;;;;;;;;14.33;13.33;29.30;33.40;;;;;;5074073;28;8755;-77
2022/07/15 00:38:19;;;;;;;;;11.00;11.00;29.30;33.50;;;;;;5073969;28;8862;-77
2022/07/15 00:40:48;;;;;;;;;13.67;13.33;29.40;33.70;;;;;;5074239;28;8784;-77
2022/07/15 00:43:18;;;;;;;;;14.33;14.33;29.40;33.60;;;;;;5073994;28;8758;-77
2022/07/15 00:45:45;;;;;;;;;10.75;10.75;29.40;33.70;;;;;;5073998;28;11468;-77
2022/07/15 00:48:12;;;;;;;;;14.50;13.25;29.40;33.70;;;;;;5073728;28;11499;-78
2022/07/15 00:50:37;;;;;;;;;12.00;12.00;29.30;33.40;;;;;;5073865;28;11523;-77
2022/07/15 00:53:07;;;;;;;;;13.00;13.00;29.30;33.40;;;;;;5072062;28;11446;-77
2022/07/15 00:55:39;;;;;;;;;11.00;11.00;29.30;33.80;;;;;;5056188;28;8776;-77
2022/07/15 00:58:07;;;;;;;;;12.67;11.33;29.20;33.90;;;;;;5073808;28;11415;-77
2022/07/15 01:00:33;;;;;;;;;11.33;11.33;29.20;33.90;;;;;;5073954;28;12113;-77
2022/07/15 01:03:00;;;;;;;;;15.00;13.00;29.20;33.80;;;;;;5073766;28;11394;-77
2022/07/15 01:05:27;;;;;;;;;14.00;13.33;29.30;33.80;;;;;;5073784;28;8757;-77
2022/07/15 01:07:53;;;;;;;;;12.00;12.00;29.20;33.70;;;;;;5074882;28;11424;-78
2022/07/15 01:10:21;;;;;;;;;19.00;15.00;29.20;34.00;;;;;;5077655;28;11555;-77
2022/07/15 01:12:48;;;;;;;;;14.33;14.33;29.00;34.00;;;;;;5077295;28;11411;-77
2022/07/15 01:15:15;;;;;;;;;16.67;16.67;28.90;34.40;;;;;;5077356;28;11430;-77
2022/07/15 01:17:43;;;;;;;;;14.67;14.67;28.90;34.60;;;;;;5077242;28;8821;-77
2022/07/15 01:20:10;;;;;;;;;18.00;15.67;28.90;34.50;;;;;;5090297;28;11471;-78
2022/07/15 01:22:36;;;;;;;;;16.67;16.33;28.90;34.60;;;;;;5097435;28;11432;-77
2022/07/15 01:25:02;;;;;;;;;18.33;18.33;28.90;34.30;;;;;;5097519;28;11468;-77
2022/07/15 01:27:28;;;;;;;;;18.33;16.67;29.00;34.30;;;;;;5097805;28;8736;-77
2022/07/15 01:29:54;;;;;;;;;15.33;15.33;29.00;34.20;;;;;;5097358;28;11487;-77
2022/07/15 01:32:20;;;;;;;;;14.33;14.33;29.00;34.30;;;;;;5096845;28;8790;-77
2022/07/15 01:34:48;;;;;;;;;13.33;13.33;29.00;34.20;;;;;;5097587;28;8791;-77
2022/07/15 01:37:15;;;;;;;;;12.33;11.67;28.90;34.20;;;;;;5097647;28;9405;-77
2022/07/15 01:39:41;;;;;;;;;13.33;12.67;28.80;34.10;;;;;;5097165;28;11432;-76
2022/07/15 01:42:07;;;;;;;;;16.67;14.00;28.80;34.40;;;;;;5097064;28;11548;-77
2022/07/15 01:44:33;;;;;;;;;16.00;16.00;28.80;34.30;;;;;;5097032;28;11556;-76
2022/07/15 01:46:58;;;;;;;;;15.67;15.33;28.70;34.60;;;;;;5097349;28;8772;-77
2022/07/15 01:49:29;;;;;;;;;16.33;16.33;28.60;34.70;;;;;;5097246;28;9640;-77
2022/07/15 01:51:56;;;;;;;;;20.00;19.00;28.60;34.90;;;;;;5097007;28;8786;-77
2022/07/15 01:54:24;;;;;;;;;15.67;15.67;28.60;35.40;;;;;;5097190;28;11574;-77
2022/07/15 01:56:51;;;;;;;;;16.00;16.00;28.70;35.70;;;;;;5096815;28;11420;-77
2022/07/15 01:59:17;;;;;;;;;13.00;13.00;28.70;36.20;;;;;;5096761;28;8764;-77
2022/07/15 02:01:44;;;;;;;;;16.00;16.00;28.60;35.90;;;;;;5097113;28;11543;-76
2022/07/15 02:04:12;;;;;;;;;15.00;13.00;28.60;36.10;;;;;;5096790;28;8760;-76
2022/07/15 02:06:39;;;;;;;;;12.00;12.00;28.60;36.10;;;;;;5096793;28;11415;-77
2022/07/15 02:09:05;;;;;;;;;14.67;14.67;28.50;36.00;;;;;;5096560;28;8918;-76
2022/07/15 02:11:32;;;;;;;;;16.00;16.00;28.50;35.90;;;;;;5096566;28;11552;-78
2022/07/15 02:14:01;;;;;;;;;15.00;14.00;28.60;35.90;;;;;;5096468;28;11418;-77
2022/07/15 02:16:28;;;;;;;;;17.67;17.00;28.50;35.90;;;;;;5096440;28;11454;-78
2022/07/15 02:18:54;;;;;;;;;17.00;17.00;28.50;35.70;;;;;;5096502;28;11541;-77
2022/07/15 02:21:20;;;;;;;;;17.00;16.67;28.40;35.50;;;;;;5096172;28;11478;-77
2022/07/15 02:23:46;;;;;;;;;17.00;17.00;28.40;35.60;;;;;;5096455;28;8752;-76
2022/07/15 02:26:13;;;;;;;;;20.33;20.33;28.40;35.50;;;;;;5078501;28;11483;-76
2022/07/15 02:28:39;;;;;;;;;18.00;18.00;28.30;35.40;;;;;;5096461;28;9469;-77
2022/07/15 02:31:05;;;;;;;;;20.67;19.67;28.30;35.40;;;;;;5096251;28;11418;-76
2022/07/15 02:33:31;;;;;;;;;19.00;18.00;28.20;35.60;;;;;;5096308;28;11490;-76
2022/07/15 02:35:57;;;;;;;;;15.00;14.33;28.20;35.60;;;;;;5096352;28;8813;-77
2022/07/15 02:38:23;;;;;;;;;13.00;11.00;28.20;35.50;;;;;;5096003;28;11443;-77
2022/07/15 02:40:49;;;;;;;;;16.00;15.67;28.20;35.50;;;;;;5096325;28;8864;-77
2022/07/15 02:43:15;;;;;;;;;17.00;17.00;28.20;35.30;;;;;;5095773;28;11444;-77
2022/07/15 02:45:42;;;;;;;;;17.33;17.33;28.10;35.60;;;;;;5096026;28;11566;-77
2022/07/15 02:48:09;;;;;;;;;17.00;17.00;28.10;35.50;;;;;;5095839;28;11509;-78
2022/07/15 02:50:35;;;;;;;;;15.00;15.00;28.10;35.60;;;;;;5096238;28;9455;-78
2022/07/15 02:53:02;;;;;;;;;15.67;14.33;28.10;35.20;;;;;;5095745;28;11417;-76
2022/07/15 02:55:29;;;;;;;;;12.00;12.00;28.10;35.30;;;;;;5095906;28;11405;-76
2022/07/15 02:57:54;;;;;;;;;15.33;15.33;28.00;35.20;;;;;;5095721;28;11559;-76
2022/07/15 03:00:21;;;;;;;;;12.33;11.00;27.90;35.20;;;;;;5095815;28;11521;-76
2022/07/15 03:02:48;;;;;;;;;15.00;14.00;27.90;35.70;;;;;;5095681;28;8775;-77
2022/07/15 03:05:14;;;;;;;;;14.00;13.00;27.90;35.60;;;;;;5095478;28;11429;-77
2022/07/15 03:07:40;;;;;;;;;11.00;11.00;27.90;35.60;;;;;;5095812;28;11421;-77
2022/07/15 03:10:07;;;;;;;;;14.00;14.00;27.80;35.50;;;;;;5095334;28;11460;-76
2022/07/15 03:12:33;;;;;;;;;19.00;19.00;27.80;35.80;;;;;;5095285;28;11405;-76
2022/07/15 03:15:00;;;;;;;;;14.67;14.67;27.80;35.70;;;;;;5095422;28;8764;-77
2022/07/15 03:17:26;;;;;;;;;21.67;20.33;27.70;35.90;;;;;;5077359;28;8791;-76
2022/07/15 03:19:52;;;;;;;;;23.67;22.00;27.60;36.30;;;;;;5095194;28;8838;-77
2022/07/15 03:22:18;;;;;;;;;27.67;24.33;27.60;36.80;;;;;;5095530;28;8776;-76
2022/07/15 03:24:43;;;;;;;;;25.33;23.33;27.70;37.00;;;;;;5095486;28;9536;-77
2022/07/15 03:27:10;;;;;;;;;27.33;26.67;27.70;37.00;;;;;;5095196;28;8894;-77
2022/07/15 03:29:36;;;;;;;;;43.67;35.67;27.80;37.20;;;;;;5094938;28;8807;-76
2022/07/15 03:32:02;;;;;;;;;37.00;33.67;27.80;37.80;;;;;;5094981;28;8760;-76
2022/07/15 03:34:28;;;;;;;;;36.33;32.33;27.80;39.20;;;;;;5094992;28;8779;-76
2022/07/15 03:36:54;;;;;;;;;29.67;26.33;27.70;39.50;;;;;;5095046;28;8759;-76
2022/07/15 03:39:21;;;;;;;;;39.00;35.33;27.80;39.70;;;;;;5094991;28;8900;-77
2022/07/15 03:41:47;;;;;;;;;41.00;36.33;27.80;39.70;;;;;;5095118;28;8759;-77
2022/07/15 03:44:14;;;;;;;;;43.33;37.00;27.80;40.00;;;;;;5094972;28;9362;-76
2022/07/15 03:46:40;;;;;;;;;32.00;30.67;27.70;40.00;;;;;;5095016;28;8748;-76
2022/07/15 03:49:06;;;;;;;;;26.00;26.00;27.70;40.30;;;;;;5095099;28;8815;-77
2022/07/15 03:51:32;;;;;;;;;31.00;30.33;27.70;40.40;;;;;;5095084;28;8763;-76
2022/07/15 03:54:03;;;;;;;;;28.33;23.00;27.70;41.10;;;;;;5094723;28;8768;-76
2022/07/15 03:56:29;;;;;;;;;22.33;21.33;27.60;41.00;;;;;;5094983;28;8771;-76
2022/07/15 03:58:56;;;;;;;;;19.67;18.33;27.60;41.10;;;;;;5095068;28;8752;-76
2022/07/15 04:01:22;;;;;;;;;22.00;20.00;27.50;41.30;;;;;;5094686;28;8756;-77
2022/07/15 04:03:49;;;;;;;;;20.33;18.67;27.50;41.30;;;;;;5094593;28;8764;-77
2022/07/15 04:06:16;;;;;;;;;19.33;19.33;27.50;40.90;;;;;;5094828;28;8760;-76
2022/07/15 04:08:43;;;;;;;;;18.67;18.00;27.60;40.80;;;;;;5094654;28;8858;-77
2022/07/15 04:11:09;;;;;;;;;21.00;19.67;27.60;40.60;;;;;;5094572;28;8744;-76
2022/07/15 04:13:35;;;;;;;;;16.00;16.00;27.70;40.40;;;;;;5094801;28;8768;-76
2022/07/15 04:16:01;;;;;;;;;16.67;16.67;27.70;40.50;;;;;;5094488;28;12070;-77
2022/07/15 04:18:27;;;;;;;;;18.67;18.33;27.70;40.30;;;;;;5076590;28;8796;-77
2022/07/15 04:20:52;;;;;;;;;20.33;18.33;27.60;40.00;;;;;;5094354;28;8845;-76
2022/07/15 04:23:18;;;;;;;;;23.00;23.00;27.60;39.70;;;;;;5094388;28;8780;-76
2022/07/15 04:25:44;;;;;;;;;22.33;21.33;27.60;39.60;;;;;;5094682;28;8775;-76
2022/07/15 04:28:10;;;;;;;;;24.00;23.33;27.70;39.80;;;;;;5094241;28;8904;-75
2022/07/15 04:30:36;;;;;;;;;34.00;28.33;27.70;40.00;;;;;;5094141;28;8825;-76
2022/07/15 04:33:02;;;;;;;;;22.67;22.67;27.70;40.00;;;;;;5094596;28;8768;-76
2022/07/15 04:35:28;;;;;;;;;30.67;29.00;27.70;40.20;;;;;;5094324;28;8771;-76
2022/07/15 04:37:54;;;;;;;;;27.33;26.00;27.70;40.10;;;;;;5094261;28;8744;-76
2022/07/15 04:40:19;;;;;;;;;26.67;26.00;27.70;40.20;;;;;;5094215;28;8834;-77
2022/07/15 04:42:45;;;;;;;;;25.33;23.67;27.70;40.50;;;;;;5095562;28;8788;-76
2022/07/15 04:45:11;;;;;;;;;26.00;25.00;27.70;40.50;;;;;;5098375;28;8878;-76
2022/07/15 04:47:37;;;;;;;;;22.67;22.33;27.70;40.40;;;;;;5098310;28;8904;-76
2022/07/15 04:52:48;;;;;;;;;30.00;25.67;27.70;40.50;;;;;;5098297;28;8732;-76
2022/07/15 04:55:15;;;;;;;;;26.33;23.00;27.80;40.80;;;;;;5098096;28;8756;-76
2022/07/15 04:57:41;;;;;;;;;31.00;28.67;27.70;40.80;;;;;;5098330;28;9503;-76
2022/07/15 05:00:08;;;;;;;;;19.00;16.67;27.80;40.80;;;;;;5098050;28;9520;-76
2022/07/15 05:02:35;;;;;;;;;26.67;26.67;27.80;41.00;;;;;;5098057;28;8751;-76
2022/07/15 05:05:01;;;;;;;;;28.33;25.33;27.70;40.80;;;;;;5079986;28;9557;-76
2022/07/15 05:07:27;;;;;;;;;22.33;22.33;27.70;40.60;;;;;;5097872;28;8886;-76
2022/07/15 05:09:52;;;;;;;;;21.33;20.33;27.70;40.70;;;;;;5090066;28;8856;-76
2022/07/15 05:12:18;;;;;;;;;25.00;24.00;27.70;41.00;;;;;;5059953;28;8934;-76
2022/07/15 05:14:44;;;;;;;;;29.33;26.33;27.70;41.00;;;;;;5091230;28;8772;-76
2022/07/15 05:17:10;;;;;;;;;28.33;28.33;27.70;41.20;;;;;;5097662;28;8858;-76
2022/07/15 05:19:36;;;;;;;;;31.67;30.00;27.70;41.20;;;;;;5079100;28;8820;-76
2022/07/15 05:22:03;;;;;;;;;49.00;40.33;27.80;41.20;;;;;;5077368;28;8773;-76
2022/07/15 05:24:29;;;;;;;;;49.67;40.33;27.70;41.00;;;;;;5077287;28;8762;-76
2022/07/15 05:26:55;;;;;;;;;46.33;38.00;27.70;40.90;;;;;;5077218;28;8774;-76
2022/07/15 05:29:24;;;;;;;;;55.67;44.00;27.70;41.00;;;;;;5077097;28;8817;-75
2022/07/15 05:31:50;;;;;;;;;58.00;45.33;27.80;40.90;;;;;;5077289;28;8778;-76
2022/07/15 05:34:16;;;;;;;;;46.33;38.33;27.80;39.60;;;;;;5077336;28;9459;-75
2022/07/15 05:36:42;;;;;;;;;50.33;40.33;27.80;39.00;;;;;;5077130;28;8750;-76
2022/07/15 05:39:08;;;;;;;;;47.00;37.67;27.90;38.60;;;;;;5077484;28;8800;-76
2022/07/15 05:41:34;;;;;;;;;43.67;35.00;27.90;39.20;;;;;;5097360;28;8858;-76
2022/07/15 05:44:00;;;;;;;;;24.33;23.33;27.90;39.20;;;;;;5097200;28;8748;-76
2022/07/15 05:46:26;;;;;;;;;18.00;17.67;27.90;40.00;;;;;;5097207;28;8744;-76
2022/07/15 05:48:52;;;;;;;;;17.00;17.00;27.90;37.60;;;;;;5097378;28;8846;-75
2022/07/15 05:51:18;;;;;;;;;14.00;14.00;27.90;37.90;;;;;;5096926;28;8840;-77
2022/07/15 05:53:45;;;;;;;;;15.33;15.33;27.90;37.20;;;;;;5096471;28;8752;-77
2022/07/15 05:56:11;;;;;;;;;15.67;15.67;28.00;37.70;;;;;;5097035;28;8768;-77
2022/07/15 05:58:37;;;;;;;;;11.00;11.00;27.90;37.70;;;;;;5096800;28;12213;-78
2022/07/15 06:01:03;;;;;;;;;14.67;14.00;28.00;37.70;;;;;;5097200;28;8756;-78
2022/07/15 06:03:29;;;;;;;;;21.00;20.67;28.10;37.90;;;;;;5097103;28;8874;-78
2022/07/15 06:05:56;;;;;;;;;24.00;23.00;28.00;37.60;;;;;;5096840;28;8784;-77
2022/07/15 06:08:22;;;;;;;;;22.33;22.33;28.10;37.50;;;;;;5096570;28;8827;-76
2022/07/15 06:10:48;;;;;;;;;25.33;23.00;28.10;37.90;;;;;;5096643;28;8772;-76
2022/07/15 06:13:14;;;;;;;;;33.33;29.67;28.10;38.40;;;;;;5096587;28;8796;-76
2022/07/15 06:15:40;;;;;;;;;36.00;30.00;28.10;38.20;;;;;;5089443;28;8810;-76
2022/07/15 06:18:06;;;;;;;;;30.00;28.00;28.10;38.10;;;;;;5076137;28;8806;-76
2022/07/15 06:20:33;;;;;;;;;38.67;32.33;28.20;37.90;;;;;;5076144;28;8823;-76
2022/07/15 06:22:58;;;;;;;;;29.00;28.67;28.20;37.90;;;;;;5076478;28;9462;-76
2022/07/15 06:25:24;;;;;;;;;30.00;28.00;28.20;37.60;;;;;;5076114;28;8750;-76
2022/07/15 06:27:50;;;;;;;;;26.67;25.00;28.30;38.00;;;;;;5078072;28;8758;-76
2022/07/15 06:30:16;;;;;;;;;19.67;18.33;28.20;38.00;;;;;;5079538;28;8803;-76
2022/07/15 06:32:42;;;;;;;;;21.67;20.67;28.30;38.00;;;;;;5096206;28;8784;-76
2022/07/15 06:35:08;;;;;;;;;19.33;18.67;28.30;37.80;;;;;;5088497;28;8866;-76
2022/07/15 06:37:34;;;;;;;;;19.67;17.33;28.30;37.00;;;;;;5075875;28;8751;-76
2022/07/15 06:40:00;;;;;;;;;14.67;13.33;28.30;37.20;;;;;;5087610;28;8768;-75
2022/07/15 06:42:26;;;;;;;;;16.67;15.00;28.40;37.10;;;;;;5096395;28;8848;-76
2022/07/15 06:44:52;;;;;;;;;16.00;14.67;28.40;37.70;;;;;;5096063;28;8764;-75
2022/07/15 06:47:18;;;;;;;;;13.67;13.67;28.40;37.30;;;;;;5095843;28;8779;-76
2022/07/15 06:49:44;;;;;;;;;13.00;13.00;28.40;37.30;;;;;;5094181;28;11450;-76
2022/07/15 06:52:09;;;;;;;;;13.00;13.00;28.40;37.70;;;;;;5094813;28;8787;-76
2022/07/15 06:54:35;;;;;;;;;14.00;14.00;28.40;37.70;;;;;;5094394;28;9394;-75
2022/07/15 06:57:01;;;;;;;;;12.00;12.00;28.40;36.70;;;;;;5094565;28;8760;-76
2022/07/15 06:59:28;;;;;;;;;13.67;13.67;28.50;37.10;;;;;;5094326;28;8760;-75
2022/07/15 07:01:54;;;;;;;;;17.67;15.67;28.50;37.20;;;;;;5094412;28;11408;-75
2022/07/15 07:04:20;;;;;;;;;16.33;14.33;28.50;37.50;;;;;;5093883;28;11426;-76
2022/07/15 07:06:46;;;;;;;;;14.00;14.00;28.50;38.10;;;;;;5093414;28;11410;-75
2022/07/15 07:09:12;;;;;;;;;15.00;15.00;28.50;37.70;;;;;;5094174;28;11559;-76
2022/07/15 07:11:39;;;;;;;;;14.00;12.67;28.60;37.90;;;;;;5076227;28;8753;-76
2022/07/15 07:14:05;;;;;;;;;14.33;14.00;28.60;38.10;;;;;;5093919;28;11489;-75
2022/07/15 07:16:31;;;;;;;;;14.33;14.33;28.60;38.20;;;;;;5094110;28;11400;-76
2022/07/15 07:18:58;;;;;;;;;14.33;14.33;28.60;38.20;;;;;;5091538;28;12206;-74
2022/07/15 07:21:24;;;;;;;;;15.67;14.33;28.60;38.20;;;;;;5094058;28;8772;-77
2022/07/15 07:23:50;;;;;;;;;13.33;13.33;28.70;38.30;;;;;;5075986;28;12190;-78
2022/07/15 07:26:17;;;;;;;;;14.67;14.67;28.70;38.70;;;;;;5093817;28;8748;-78
2022/07/15 07:28:43;;;;;;;;;14.33;14.00;28.70;38.30;;;;;;5094288;28;8812;-78
2022/07/15 07:31:10;;;;;;;;;15.00;14.00;28.70;38.20;;;;;;5093850;28;11470;-77
2022/07/15 07:33:37;;;;;;;;;13.00;13.00;28.70;38.20;;;;;;5090932;28;11453;-78
2022/07/15 07:36:04;;;;;;;;;15.00;15.00;28.70;37.70;;;;;;5093598;28;11514;-77
2022/07/15 07:38:31;;;;;;;;;17.33;15.67;28.70;38.10;;;;;;5093542;28;12623;-77
2022/07/15 07:40:57;;;;;;;;;17.00;17.00;28.70;38.00;;;;;;5090749;28;11506;-77
2022/07/15 07:43:23;;;;;;;;;16.33;16.00;28.70;37.10;;;;;;5093466;28;11422;-77
2022/07/15 07:45:49;;;;;;;;;17.67;16.33;28.70;37.40;;;;;;5093659;28;8884;-77
2022/07/15 07:48:16;;;;;;;;;17.33;16.67;28.70;37.90;;;;;;5093341;28;8780;-78
2022/07/15 07:50:42;;;;;;;;;17.00;17.00;28.80;38.30;;;;;;5094832;28;8772;-78
2022/07/15 07:53:08;;;;;;;;;15.00;15.00;28.80;37.70;;;;;;5094744;28;11473;-78
2022/07/15 07:55:34;;;;;;;;;15.33;14.67;28.80;38.30;;;;;;5094612;28;11437;-79
2022/07/15 07:58:01;;;;;;;;;18.00;17.00;28.80;38.30;;;;;;5094873;28;8878;-80
2022/07/15 08:00:27;;;;;;;;;14.33;14.00;28.90;38.00;;;;;;5094633;28;8760;-81
2022/07/15 08:02:55;;;;;;;;;16.67;16.00;28.90;38.10;;;;;;5076634;28;11449;-79
2022/07/15 08:05:21;;;;;;;;;18.00;16.33;28.90;38.40;;;;;;5094819;28;8759;-78
2022/07/15 08:07:47;;;;;;;;;19.33;18.00;28.90;38.40;;;;;;5094742;28;12156;-79
2022/07/15 08:10:14;;;;;;;;;16.00;16.00;28.90;38.80;;;;;;5094437;28;8817;-79
2022/07/15 08:12:41;;;;;;;;;16.33;16.00;29.00;38.40;;;;;;5094311;28;11524;-80
2022/07/15 08:15:13;;;;;;;;;16.00;16.00;28.90;38.50;;;;;;5094704;28;11459;-77
2022/07/15 08:17:39;;;;;;;;;19.00;19.00;28.80;38.40;;;;;;5076137;28;11463;-75
2022/07/15 08:20:07;;;;;;;;;17.67;17.67;28.60;39.50;;;;;;5094398;28;8823;-75
2022/07/15 08:22:34;;;;;;;;;17.67;16.00;28.50;39.30;;;;;;5094690;28;8828;-73
2022/07/15 08:25:00;;;;;;;;;18.00;16.33;28.60;39.50;;;;;;5094147;28;11444;-74
2022/07/15 08:27:25;;;;;;;;;15.00;15.00;28.80;39.30;;;;;;5094457;28;11435;-76
2022/07/15 08:29:51;;;;;;;;;20.67;20.67;28.80;39.10;;;;;;5076438;28;8849;-77
2022/07/15 08:32:17;;;;;;;;;18.00;18.00;29.00;38.80;;;;;;5094303;28;8828;-77
2022/07/15 08:34:43;;;;;;;;;18.67;17.67;29.10;38.70;;;;;;5094422;28;8793;-76
2022/07/15 08:37:09;;;;;;;;;18.00;18.00;29.10;38.60;;;;;;5094464;28;8787;-76
2022/07/15 08:39:39;;;;;;;;;17.67;16.33;29.00;38.50;;;;;;5094446;28;8768;-76
2022/07/15 08:42:05;;;;;;;;;18.67;18.67;29.10;38.40;;;;;;5094478;28;11417;-76
2022/07/15 08:44:32;;;;;;;;;19.67;19.67;29.00;38.10;;;;;;5094366;28;12130;-76
2022/07/15 08:47:02;;;;;;;;;19.00;19.00;29.10;38.40;;;;;;5094162;28;11457;-77
2022/07/15 08:49:31;;;;;;;;;20.67;20.67;29.10;37.90;;;;;;5094225;28;11509;-77
2022/07/15 08:51:59;;;;;;;;;16.00;15.00;29.20;38.10;;;;;;5094472;28;8748;-78
2022/07/15 08:54:25;;;;;;;;;18.67;17.33;29.20;37.50;;;;;;5094118;28;11456;-76
2022/07/15 08:56:51;;;;;;;;;20.00;18.67;29.20;37.40;;;;;;5070623;28;8842;-78
2022/07/15 08:59:17;;;;;;;;;17.00;17.00;29.30;37.30;;;;;;5087749;28;8908;-77
2022/07/15 09:01:48;;;;;;;;;16.33;16.33;29.30;36.70;;;;;;5078579;28;9640;-74
2022/07/15 09:04:16;;;;;;;;;19.67;18.00;29.30;37.30;;;;;;5093890;28;12180;-74
2022/07/15 09:06:47;;;;;;;;;18.00;18.00;29.40;37.00;;;;;;5087421;28;8793;-73
2022/07/15 09:09:23;;;;;;;;;15.67;15.00;29.40;38.00;;;;;;5071880;28;11595;-74
2022/07/15 09:12:02;;;;;;;;;18.00;18.00;29.50;37.10;;;;;;5093983;28;8784;-74
2022/07/15 09:14:30;;;;;;;;;15.67;15.67;29.40;37.30;;;;;;5106877;28;11432;-74
2022/07/15 09:17:11;;;;;;;;;19.00;18.00;29.50;37.30;;;;;;5113816;28;12147;-73
2022/07/15 09:19:58;;;;;;;;;16.00;16.00;29.50;37.10;;;;;;5113509;28;11471;-77
2022/07/15 09:22:25;;;;;;;;;19.00;19.00;29.60;37.20;;;;;;5114083;28;11422;-73
2022/07/15 09:25:13;;;;;;;;;22.00;19.33;29.70;37.20;;;;;;5114330;28;8776;-75
2022/07/15 09:27:41;;;;;;;;;14.33;14.33;29.60;37.20;;;;;;5113883;28;11435;-76
2022/07/15 09:36:04;;;;;;;;;14.00;14.00;29.70;35.10;;;;;;5117763;28;11403;-73
2022/07/15 09:38:41;;;;;;;;;17.00;16.33;29.60;35.40;;;;;;5117452;28;11429;-73
2022/07/15 09:41:28;;;;;;;;;16.67;16.67;29.60;36.10;;;;;;5114830;28;11425;-73
2022/07/15 09:44:05;;;;;;;;;15.33;15.33;29.80;35.80;;;;;;5092372;28;11516;-72
2022/07/15 09:46:57;;;;;;;;;14.33;14.33;29.90;34.80;;;;;;5097033;28;11468;-74
2022/07/15 09:49:23;;;;;;;;;13.33;13.33;30.10;35.30;;;;;;5097094;28;11547;-74
2022/07/15 09:51:54;;;;;;;;;14.67;14.67;30.20;35.10;;;;;;5096686;28;12074;-74
2022/07/15 09:54:25;;;;;;;;;14.67;14.67;30.20;35.00;;;;;;5096894;28;8783;-74
2022/07/15 09:56:52;;;;;;;;;17.00;17.00;30.20;34.50;;;;;;5096935;28;11446;-74
2022/07/15 09:59:19;;;;;;;;;17.00;15.67;30.20;33.90;;;;;;5096805;28;11534;-74
2022/07/15 10:01:47;;;;;;;;;13.75;13.75;30.30;34.10;;;;;;5097014;28;11448;-73
2022/07/15 10:04:18;;;;;;;;;14.00;14.00;30.40;33.20;;;;;;5090495;28;12205;-70
2022/07/15 10:06:46;;;;;;;;;11.75;11.75;30.50;33.40;;;;;;5091426;28;11532;-71
2022/07/15 10:09:12;;;;;;;;;10.25;10.25;30.40;32.90;;;;;;5091958;28;11444;-72
2022/07/15 10:11:44;;;;;;;;;23.33;23.33;30.40;32.70;;;;;;5095208;28;11341;-71
2022/07/15 10:14:22;;;;;;;;;19.33;19.33;30.50;32.80;;;;;;5094974;28;8740;-71
2022/07/15 10:17:00;;;;;;;;;16.33;16.33;30.50;33.40;;;;;;5090157;28;11455;-73
2022/07/15 10:19:41;;;;;;;;;14.00;13.33;30.70;33.20;;;;;;5095324;28;12355;-74
2022/07/15 10:22:44;;;;;;;;;14.50;11.25;30.80;33.10;;;;;;5089146;28;11591;-72
2022/07/15 10:25:18;;;;;;;;;13.50;12.50;30.70;32.20;;;;;;5021034;28;11543;-73
2022/07/15 10:28:04;;;;;;;;;12.75;12.25;30.80;32.00;;;;;;5090576;28;11514;-74
2022/07/15 10:30:30;;;;;;;;;17.25;15.75;31.00;31.90;;;;;;5089499;28;11430;-75
2022/07/15 10:33:16;;;;;;;;;11.00;10.00;31.20;31.50;;;;;;5094732;28;11530;-74
2022/07/15 10:35:48;;;;;;;;;12.50;12.50;31.30;31.00;;;;;;5094112;28;8795;-72
2022/07/15 10:38:33;;;;;;;;;14.00;14.00;31.40;30.60;;;;;;5082973;28;11445;-74
2022/07/15 10:41:00;;;;;;;;;11.75;11.00;31.30;31.40;;;;;;5092116;28;11468;-74
2022/07/15 10:43:49;;;;;;;;;11.00;10.00;31.30;30.70;;;;;;5089133;28;11410;-74
2022/07/15 10:46:20;;;;;;;;;12.00;12.00;31.40;30.00;;;;;;5071616;28;11547;-73
2022/07/15 10:48:52;;;;;;;;;9.00;9.00;31.60;29.90;;;;;;5093098;28;11534;-75
2022/07/15 10:51:47;;;;;;;;;11.75;11.75;31.80;30.00;;;;;;5095763;28;12129;-76
2022/07/15 10:54:18;;;;;;;;;11.00;11.00;32.00;29.90;;;;;;5013201;28;11927;-76
2022/07/15 10:56:47;;;;;;;;;10.00;10.00;31.80;29.60;;;;;;5007462;28;11511;-76
2022/07/15 10:59:21;;;;;;;;;15.00;15.00;31.50;29.90;;;;;;5013226;28;11470;-75
2022/07/15 11:01:50;;;;;;;;;13.00;13.00;31.80;30.10;;;;;;5013428;28;11464;-77
2022/07/15 11:04:23;;;;;;;;;11.75;10.50;32.00;29.70;;;;;;5013326;28;11482;-74
2022/07/15 11:07:10;;;;;;;;;11.50;11.50;32.00;29.40;;;;;;5005233;28;11528;-73
2022/07/15 11:09:48;;;;;;;;;11.00;11.00;32.20;29.50;;;;;;4993452;28;11502;-73
2022/07/15 11:12:18;;;;;;;;;13.00;12.50;32.40;29.40;;;;;;4993204;28;11456;-73
2022/07/15 11:14:52;;;;;;;;;11.75;11.75;32.50;29.20;;;;;;5025196;28;11640;-76
2022/07/15 11:17:40;;;;;;;;;9.00;9.00;32.60;28.00;;;;;;5032582;28;11427;-76
2022/07/15 11:20:12;;;;;;;;;12.00;12.00;32.70;27.50;;;;;;5032342;28;11685;-75
2022/07/15 11:22:50;;;;;;;;;12.50;12.50;32.80;27.50;;;;;;5032820;28;11465;-75
2022/07/15 11:25:23;;;;;;;;;12.75;12.75;32.90;28.60;;;;;;5032734;28;11580;-76
2022/07/15 11:27:57;;;;;;;;;10.50;10.50;33.00;28.60;;;;;;5032436;28;11456;-77
2022/07/15 11:30:23;;;;;;;;;14.50;14.50;33.20;28.10;;;;;;5058212;28;12088;-76
2022/07/15 11:32:56;;;;;;;;;13.75;13.75;33.40;28.10;;;;;;5095026;28;11499;-75
2022/07/15 11:35:22;;;;;;;;;12.25;12.25;34.10;27.90;;;;;;5095012;28;9457;-76
2022/07/15 11:37:47;;;;;;;;;11.25;10.00;35.00;26.70;;;;;;5094470;28;11524;-76
2022/07/15 11:45:49;;;;;;;;;10.50;10.50;39.00;23.60;;;;;;5054615;28;11391;-77
2022/07/15 11:48:15;;;;;;;;;12.00;12.00;40.50;22.70;;;;;;5062212;28;11567;-72
2022/07/15 11:50:52;;;;;;;;;12.00;12.00;41.70;21.90;;;;;;5072737;28;11476;-80
2022/07/15 11:53:18;;;;;;;;;11.75;11.75;42.70;20.90;;;;;;5072218;28;11483;-75
2022/07/15 11:55:55;;;;;;;;;11.50;11.50;43.50;20.00;;;;;;5073063;28;11460;-76
2022/07/15 11:58:30;;;;;;;;;10.00;10.00;44.30;19.30;;;;;;5072797;28;11435;-72
2022/07/15 12:00:58;;;;;;;;;11.00;11.00;45.10;18.80;;;;;;5073073;28;11557;-72
2022/07/15 12:03:23;;;;;;;;;10.00;10.00;45.70;18.70;;;;;;5070479;28;11466;-72
2022/07/15 12:06:16;;;;;;;;;12.67;12.67;46.20;18.50;;;;;;5072732;28;11468;-71
2022/07/15 12:08:48;;;;;;;;;11.33;11.33;46.70;18.50;;;;;;5072760;28;8806;-71
2022/07/15 12:11:21;;;;;;;;;12.00;12.00;47.10;18.00;;;;;;5073074;28;11420;-73
2022/07/15 12:13:54;;;;;;;;;11.00;11.00;47.30;17.50;;;;;;5072050;28;11580;-70
2022/07/15 12:16:33;;;;;;;;;11.33;11.33;47.60;17.40;;;;;;5071488;28;11512;-71
2022/07/15 12:19:04;;;;;;;;;11.67;11.67;47.80;17.20;;;;;;5064775;28;11473;-74
2022/07/15 12:21:31;;;;;;;;;11.00;11.00;48.30;17.20;;;;;;5092085;28;12090;-73
2022/07/15 12:23:59;;;;;;;;;21.00;21.00;48.00;16.80;;;;;;5080330;28;11456;-75
2022/07/15 12:26:25;;;;;;;;;11.00;11.00;47.70;17.10;;;;;;5075467;28;8843;-73
2022/07/15 12:29:00;;;;;;;;;11.67;11.67;48.20;16.50;;;;;;5094013;28;11460;-71
2022/07/15 12:31:32;;;;;;;;;11.00;11.00;48.60;16.90;;;;;;5094381;28;8763;-71
2022/07/15 12:33:58;;;;;;;;;11.00;11.00;49.30;16.30;;;;;;5076063;28;11439;-73
2022/07/15 12:36:26;;;;;;;;;9.00;9.00;49.70;15.90;;;;;;5093182;28;8794;-73
2022/07/15 12:39:22;;;;;;;;;9.33;9.33;49.60;15.80;;;;;;5093254;28;11412;-73
2022/07/15 12:42:02;;;;;;;;;10.33;10.33;49.60;16.10;;;;;;4993979;28;11500;-73
2022/07/15 12:44:28;;;;;;;;;11.00;11.00;50.00;15.50;;;;;;5011602;28;8765;-76
2022/07/15 12:47:03;;;;;;;;;11.00;11.00;50.40;15.30;;;;;;5011465;28;8875;-74
2022/07/15 12:49:47;;;;;;;;;10.67;10.67;50.70;15.20;;;;;;5011459;28;9459;-74
2022/07/15 12:52:33;;;;;;;;;11.00;11.00;50.80;14.60;;;;;;5009737;28;11459;-72
2022/07/15 12:55:12;;;;;;;;;9.33;9.33;51.00;15.10;;;;;;5011497;28;11487;-74